createdAt,value
2017-11-06T00:01:23.062Z,25.20
2017-11-06T00:03:51.974Z,19.67
2017-11-06T00:06:20.152Z,21.07
2017-11-06T00:08:48.302Z,24.43
2017-11-06T00:11:17.236Z,23.10
2017-11-06T00:13:45.378Z,29.07
2017-11-06T00:16:13.540Z,24.27
2017-11-06T00:18:43.046Z,18.83
2017-11-06T00:21:11.961Z,29.00
2017-11-06T00:23:40.114Z,23.97
2017-11-06T00:26:09.040Z,21.83
2017-11-06T00:28:37.204Z,32.00
2017-11-06T00:31:05.364Z,28.77
2017-11-06T00:33:33.508Z,27.47
2017-11-06T00:36:01.732Z,25.70
2017-11-06T00:38:29.890Z,21.93
2017-11-06T00:40:58.228Z,20.23
2017-11-06T00:43:26.383Z,18.90
2017-11-06T00:45:54.626Z,20.37
2017-11-06T00:48:22.798Z,18.93
2017-11-06T00:50:50.943Z,29.03
2017-11-06T00:53:19.104Z,25.53
2017-11-06T00:55:48.020Z,19.70
2017-11-06T00:58:16.179Z,21.70
2017-11-06T01:00:44.311Z,20.70
2017-11-06T01:03:12.841Z,22.73
2017-11-06T01:05:40.986Z,25.67
2017-11-06T01:08:10.594Z,21.70
2017-11-06T01:10:39.537Z,22.07
2017-11-06T01:13:07.718Z,24.00
2017-11-06T01:15:35.854Z,22.60
2017-11-06T01:18:04.005Z,20.97
2017-11-06T01:20:33.145Z,30.23
2017-11-06T01:23:01.328Z,20.20
2017-11-06T01:25:29.492Z,20.03
2017-11-06T01:27:57.647Z,22.57
2017-11-06T01:30:25.818Z,19.30
2017-11-06T01:32:53.965Z,24.13
2017-11-06T01:35:22.897Z,18.47
2017-11-06T01:37:51.071Z,19.70
2017-11-06T01:40:24.663Z,23.70
2017-11-06T01:42:52.839Z,26.43
2017-11-06T01:45:20.995Z,20.70
2017-11-06T01:47:49.186Z,25.43
2017-11-06T01:50:17.344Z,20.43
2017-11-06T01:52:45.496Z,23.60
2017-11-06T01:55:14.447Z,25.07
2017-11-06T01:57:42.612Z,23.43
2017-11-06T02:00:10.752Z,24.37
2017-11-06T02:02:38.914Z,20.77
2017-11-06T02:05:07.065Z,21.63
2017-11-06T02:07:35.993Z,22.17
2017-11-06T02:10:04.144Z,23.50
2017-11-06T02:12:33.077Z,20.87
2017-11-06T02:15:01.212Z,30.77
2017-11-06T02:17:29.380Z,22.62
2017-11-06T02:19:57.573Z,23.33
2017-11-06T02:22:25.735Z,21.35
2017-11-06T02:24:53.905Z,35.63
2017-11-06T02:27:22.077Z,26.07
2017-11-06T02:29:50.231Z,23.83
2017-11-06T02:32:18.397Z,30.83
2017-11-06T02:34:47.311Z,17.40
2017-11-06T02:37:15.481Z,25.33
2017-11-06T02:39:43.645Z,22.45
2017-11-06T02:42:11.808Z,15.30
2017-11-06T02:44:40.743Z,22.57
2017-11-06T02:47:08.887Z,20.33
2017-11-06T02:49:37.058Z,16.70
2017-11-06T02:52:05.201Z,15.20
2017-11-06T02:54:34.143Z,21.27
2017-11-06T02:57:02.285Z,22.55
2017-11-06T02:59:31.206Z,24.50
2017-11-06T03:01:59.359Z,18.65
2017-11-06T03:04:27.529Z,20.12
2017-11-06T03:06:55.742Z,15.07
2017-11-06T03:09:23.903Z,16.00
2017-11-06T03:11:52.049Z,23.03
2017-11-06T03:14:20.990Z,18.90
2017-11-06T03:16:49.153Z,16.80
2017-11-06T03:19:17.335Z,21.90
2017-11-06T03:21:45.484Z,23.00
2017-11-06T03:24:13.635Z,22.90
2017-11-06T03:26:42.666Z,22.73
2017-11-06T03:29:10.817Z,17.25
2017-11-06T03:31:38.998Z,17.95
2017-11-06T03:34:07.152Z,26.23
2017-11-06T03:36:35.325Z,17.27
2017-11-06T03:39:03.487Z,16.30
2017-11-06T03:41:32.350Z,16.75
2017-11-06T03:44:00.494Z,19.33
2017-11-06T03:46:28.656Z,21.87
2017-11-06T03:48:56.802Z,19.43
2017-11-06T03:51:24.954Z,20.77
2017-11-06T03:53:53.875Z,19.67
2017-11-06T03:56:22.035Z,26.13
2017-11-06T03:58:50.243Z,16.37
2017-11-06T04:01:18.403Z,25.43
2017-11-06T04:03:46.902Z,18.15
2017-11-06T04:06:15.054Z,21.92
2017-11-06T04:08:43.231Z,23.38
2017-11-06T04:11:11.507Z,18.02
2017-11-06T04:13:39.648Z,23.30
2017-11-06T04:16:07.856Z,31.03
2017-11-06T04:18:36.027Z,15.50
2017-11-06T04:21:04.175Z,19.23
2017-11-06T04:23:32.335Z,21.00
2017-11-06T04:26:00.473Z,19.42
2017-11-06T04:28:28.627Z,17.60
2017-11-06T04:30:56.991Z,17.50
2017-11-06T04:33:25.155Z,17.80
2017-11-06T04:35:53.303Z,16.00
2017-11-06T04:38:21.519Z,38.20
2017-11-06T04:40:49.647Z,18.03
2017-11-06T04:43:18.681Z,24.73
2017-11-06T04:45:46.830Z,37.33
2017-11-06T04:48:15.006Z,27.73
2017-11-06T04:50:43.155Z,18.50
2017-11-06T04:53:12.124Z,16.80
2017-11-06T04:55:41.083Z,15.05
2017-11-06T04:58:09.271Z,23.03
2017-11-06T05:00:37.411Z,15.50
2017-11-06T05:03:05.563Z,17.10
2017-11-06T05:05:33.749Z,20.97
2017-11-06T05:08:01.947Z,23.40
2017-11-06T05:10:30.131Z,17.93
2017-11-06T05:12:58.285Z,15.67
2017-11-06T05:15:26.450Z,22.13
2017-11-06T05:17:54.577Z,20.07
2017-11-06T05:20:22.727Z,19.77
2017-11-06T05:22:50.869Z,18.27
2017-11-06T05:25:19.042Z,17.17
2017-11-06T05:27:47.214Z,15.05
2017-11-06T05:30:15.397Z,18.40
2017-11-06T05:32:43.539Z,17.93
2017-11-06T05:35:11.703Z,18.40
2017-11-06T05:37:40.602Z,21.40
2017-11-06T05:40:08.814Z,12.13
2017-11-06T05:42:36.950Z,26.65
2017-11-06T05:45:05.117Z,20.98
2017-11-06T05:47:33.269Z,18.75
2017-11-06T05:50:02.178Z,18.53
2017-11-06T05:52:30.319Z,17.15
2017-11-06T05:54:58.486Z,26.95
2017-11-06T05:57:26.643Z,20.52
2017-11-06T05:59:54.792Z,18.60
2017-11-06T06:02:22.950Z,19.65
2017-11-06T06:04:51.095Z,22.13
2017-11-06T06:07:20.027Z,20.40
2017-11-06T06:09:48.216Z,22.35
2017-11-06T06:12:16.377Z,22.45
2017-11-06T06:14:44.538Z,17.45
2017-11-06T06:17:12.692Z,25.15
2017-11-06T06:19:40.897Z,16.33
2017-11-06T06:22:09.057Z,16.50
2017-11-06T06:24:37.200Z,19.12
2017-11-06T06:27:06.131Z,22.75
2017-11-06T06:29:34.280Z,17.98
2017-11-06T06:32:02.444Z,24.67
2017-11-06T06:34:30.608Z,31.98
2017-11-06T06:36:59.555Z,20.98
2017-11-06T06:39:27.703Z,22.40
2017-11-06T06:41:56.388Z,34.03
2017-11-06T06:44:25.523Z,24.35
2017-11-06T06:46:53.685Z,26.90
2017-11-06T06:49:21.836Z,19.48
2017-11-06T06:51:50.140Z,19.73
2017-11-06T06:54:18.287Z,19.48
2017-11-06T06:56:46.435Z,32.83
2017-11-06T06:59:14.599Z,17.10
2017-11-06T07:01:43.515Z,20.45
2017-11-06T07:04:11.698Z,23.00
2017-11-06T07:06:39.840Z,22.75
2017-11-06T07:09:08.048Z,36.33
2017-11-06T07:11:36.703Z,17.75
2017-11-06T07:14:04.872Z,26.55
2017-11-06T07:23:32.982Z,17.48
2017-11-06T07:26:01.152Z,18.40
2017-11-06T07:28:30.063Z,21.33
2017-11-06T07:30:59.170Z,28.83
2017-11-06T07:33:27.325Z,15.35
2017-11-06T07:35:55.521Z,18.17
2017-11-06T07:38:23.751Z,21.83
2017-11-06T07:40:52.789Z,18.70
2017-11-06T07:43:20.948Z,21.33
2017-11-06T07:45:49.142Z,20.05
2017-11-06T07:48:17.287Z,19.35
2017-11-06T07:50:45.476Z,27.05
2017-11-06T07:53:13.627Z,17.35
2017-11-06T07:55:42.298Z,24.00
2017-11-06T07:58:10.455Z,16.25
2017-11-06T08:00:39.367Z,23.05
2017-11-06T08:03:07.535Z,24.87
2017-11-06T08:05:35.699Z,24.00
2017-11-06T08:08:04.628Z,16.60
2017-11-06T08:10:32.768Z,27.03
2017-11-06T08:13:01.231Z,18.05
2017-11-06T08:15:30.143Z,18.08
2017-11-06T08:17:58.314Z,21.33
2017-11-06T08:20:26.527Z,26.00
2017-11-06T08:22:54.696Z,16.10
2017-11-06T08:25:22.843Z,16.55
2017-11-06T08:27:51.011Z,18.50
2017-11-06T08:30:19.151Z,24.48
2017-11-06T08:32:47.674Z,21.37
2017-11-06T08:35:15.825Z,18.30
2017-11-06T08:37:44.753Z,22.33
2017-11-06T08:40:12.908Z,16.17
2017-11-06T08:42:41.071Z,27.40
2017-11-06T08:45:09.213Z,19.23
2017-11-06T08:47:37.358Z,16.63
2017-11-06T08:50:05.638Z,21.27
2017-11-06T08:52:33.827Z,19.40
2017-11-06T08:55:02.001Z,18.20
2017-11-06T08:57:30.155Z,17.40
2017-11-06T08:59:58.406Z,23.67
2017-11-06T09:02:26.855Z,19.97
2017-11-06T09:04:55.880Z,17.53
2017-11-06T09:07:24.038Z,16.93
2017-11-06T09:09:52.320Z,24.80
2017-11-06T09:12:20.454Z,25.73
2017-11-06T09:14:48.643Z,22.80
2017-11-06T09:17:17.568Z,19.40
2017-11-06T09:19:45.745Z,20.20
2017-11-06T09:22:14.581Z,20.23
2017-11-06T09:24:44.071Z,20.97
2017-11-06T09:27:12.227Z,18.60
2017-11-06T09:29:40.418Z,17.90
2017-11-06T09:32:08.596Z,20.27
2017-11-06T09:34:36.744Z,21.43
2017-11-06T09:37:04.920Z,19.20
2017-11-06T09:39:33.074Z,25.83
2017-11-06T09:42:01.239Z,16.47
2017-11-06T09:44:29.418Z,18.90
2017-11-06T09:46:57.596Z,20.63
2017-11-06T09:49:26.576Z,20.10
2017-11-06T09:51:54.739Z,19.13
2017-11-06T09:54:22.904Z,34.17
2017-11-06T09:56:51.886Z,22.30
2017-11-06T10:06:19.893Z,20.87
2017-11-06T10:08:49.480Z,18.80
2017-11-06T10:11:17.814Z,17.73
2017-11-06T10:13:45.982Z,24.33
2017-11-06T10:16:14.177Z,16.17
2017-11-06T10:18:42.348Z,24.40
2017-11-06T10:21:10.493Z,17.63
2017-11-06T10:23:38.672Z,15.47
2017-11-06T10:26:06.827Z,22.50
2017-11-06T10:28:35.594Z,27.93
2017-11-06T10:31:04.530Z,18.57
2017-11-06T10:33:32.701Z,18.80
2017-11-06T10:36:00.877Z,17.33
2017-11-06T10:38:29.079Z,21.80
2017-11-06T10:40:57.254Z,18.20
2017-11-06T10:43:25.454Z,15.30
2017-11-06T10:45:54.377Z,19.73
2017-11-06T10:48:22.587Z,18.73
2017-11-06T10:50:50.732Z,22.97
2017-11-06T10:53:19.729Z,19.50
2017-11-06T10:55:58.270Z,13.10
2017-11-06T10:58:26.415Z,22.43
2017-11-06T11:00:54.587Z,18.00
2017-11-06T11:03:22.744Z,22.07
2017-11-06T11:05:50.980Z,26.20
2017-11-06T11:08:19.899Z,25.13
2017-11-06T11:10:48.189Z,20.97
2017-11-06T11:13:16.344Z,25.60
2017-11-06T11:15:44.555Z,21.53
2017-11-06T11:18:12.711Z,15.07
2017-11-06T11:20:41.054Z,17.17
2017-11-06T11:23:09.963Z,18.53
2017-11-06T11:25:38.173Z,29.23
2017-11-06T11:28:06.512Z,17.10
2017-11-06T11:30:34.690Z,17.67
2017-11-06T11:33:02.895Z,18.73
2017-11-06T11:35:31.182Z,17.53
2017-11-06T11:37:59.344Z,16.93
2017-11-06T11:40:27.495Z,23.27
2017-11-06T11:42:55.683Z,16.13
2017-11-06T11:45:23.835Z,20.27
2017-11-06T11:47:51.998Z,13.87
2017-11-06T11:50:20.421Z,18.50
2017-11-06T11:52:49.396Z,19.90
2017-11-06T11:55:17.560Z,13.57
2017-11-06T11:57:45.848Z,14.00
2017-11-06T12:00:14.012Z,15.17
2017-11-06T12:02:42.170Z,17.03
2017-11-06T12:05:10.327Z,19.87
2017-11-06T12:07:38.531Z,22.77
2017-11-06T12:10:06.696Z,19.43
2017-11-06T12:12:34.842Z,14.70
2017-11-06T12:15:03.872Z,24.77
2017-11-06T12:17:33.214Z,13.83
2017-11-06T12:20:02.179Z,21.13
2017-11-06T12:22:30.940Z,15.87
2017-11-06T12:24:59.233Z,15.00
2017-11-06T12:27:27.460Z,16.87
2017-11-06T12:29:56.698Z,12.30
2017-11-06T12:32:24.860Z,14.70
2017-11-06T12:34:53.021Z,13.70
2017-11-06T12:37:21.162Z,15.57
2017-11-06T12:39:50.120Z,15.03
2017-11-06T12:42:18.282Z,17.13
2017-11-06T12:44:46.443Z,14.33
2017-11-06T12:47:14.593Z,16.20
2017-11-06T12:49:42.739Z,22.23
2017-11-06T12:52:10.976Z,18.77
2017-11-06T12:54:40.513Z,19.87
2017-11-06T12:57:08.763Z,22.07
2017-11-06T12:59:37.039Z,13.73
2017-11-06T13:02:05.198Z,15.60
2017-11-06T13:04:33.388Z,19.00
2017-11-06T13:07:01.579Z,12.27
2017-11-06T13:09:29.735Z,17.20
2017-11-06T13:11:57.907Z,13.97
2017-11-06T13:14:26.861Z,13.67
2017-11-06T13:16:55.047Z,13.57
2017-11-06T13:19:23.772Z,15.53
2017-11-06T13:21:51.961Z,15.07
2017-11-06T13:24:20.867Z,23.23
2017-11-06T13:26:49.035Z,12.50
2017-11-06T13:29:17.959Z,17.07
2017-11-06T13:31:46.155Z,13.40
2017-11-06T13:34:14.298Z,14.87
2017-11-06T13:36:42.459Z,14.03
2017-11-06T13:39:10.628Z,12.57
2017-11-06T13:41:39.380Z,11.00
2017-11-06T13:44:08.336Z,15.50
2017-11-06T13:46:36.484Z,14.17
2017-11-06T13:49:04.745Z,15.10
2017-11-06T13:51:32.949Z,14.60
2017-11-06T13:54:01.110Z,14.50
2017-11-06T13:56:29.279Z,11.30
2017-11-06T13:58:57.465Z,22.20
2017-11-06T14:01:25.646Z,12.50
2017-11-06T14:03:53.826Z,14.97
2017-11-06T14:06:21.997Z,15.40
2017-11-06T14:08:50.172Z,13.13
2017-11-06T14:11:18.327Z,15.27
2017-11-06T14:13:46.492Z,13.50
2017-11-06T14:16:14.681Z,12.10
2017-11-06T14:18:42.840Z,11.73
2017-11-06T14:21:11.007Z,18.20
2017-11-06T14:23:39.179Z,14.23
2017-11-06T14:26:07.360Z,13.27
2017-11-06T14:28:35.572Z,20.50
2017-11-06T14:31:03.741Z,25.13
2017-11-06T14:33:31.882Z,17.47
2017-11-06T14:36:00.051Z,20.17
2017-11-06T14:38:28.252Z,17.10
2017-11-06T14:40:56.420Z,19.77
2017-11-06T14:43:24.562Z,15.93
2017-11-06T14:45:52.726Z,12.73
2017-11-06T14:48:20.897Z,19.87
2017-11-06T14:50:49.084Z,15.37
2017-11-06T14:53:17.235Z,16.23
2017-11-06T14:55:46.154Z,16.83
2017-11-06T14:58:14.322Z,13.40
2017-11-06T15:00:42.463Z,20.70
2017-11-06T15:03:11.446Z,18.63
2017-11-06T15:05:40.379Z,24.60
2017-11-06T15:08:08.531Z,14.10
2017-11-06T15:10:37.449Z,26.10
2017-11-06T15:13:05.743Z,20.67
2017-11-06T15:15:33.922Z,15.57
2017-11-06T15:18:02.100Z,19.40
2017-11-06T15:20:30.263Z,23.60
2017-11-06T15:22:58.441Z,20.77
2017-11-06T15:25:26.599Z,17.60
2017-11-06T15:27:54.872Z,29.53
2017-11-06T15:30:23.026Z,41.00
2017-11-06T15:32:51.240Z,30.20
2017-11-06T15:35:19.400Z,22.43
2017-11-06T15:37:47.587Z,17.20
2017-11-06T15:40:15.844Z,19.03
2017-11-06T15:42:44.043Z,28.20
2017-11-06T15:45:12.195Z,17.40
2017-11-06T15:47:40.360Z,21.50
2017-11-06T15:50:08.972Z,18.07
2017-11-06T15:52:37.119Z,18.97
2017-11-06T15:55:05.282Z,27.23
2017-11-06T15:57:33.432Z,22.20
2017-11-06T16:00:01.596Z,27.23
2017-11-06T16:02:29.740Z,20.43
2017-11-06T16:04:57.918Z,25.10
2017-11-06T16:07:26.138Z,27.50
2017-11-06T16:09:54.309Z,23.70
2017-11-06T16:12:22.452Z,30.00
2017-11-06T16:14:50.629Z,26.37
2017-11-06T16:17:19.418Z,27.37
2017-11-06T16:19:47.592Z,35.03
2017-11-06T16:22:16.489Z,20.77
2017-11-06T16:24:44.711Z,22.67
2017-11-06T16:27:12.865Z,22.13
2017-11-06T16:29:41.049Z,20.98
2017-11-06T16:32:09.224Z,28.47
2017-11-06T16:34:37.388Z,32.57
2017-11-06T16:37:05.556Z,25.83
2017-11-06T16:39:33.718Z,24.20
2017-11-06T16:42:01.892Z,24.42
2017-11-06T16:44:30.041Z,28.92
2017-11-06T16:46:58.203Z,36.77
2017-11-06T16:49:26.359Z,27.17
2017-11-06T16:51:55.291Z,28.02
2017-11-06T16:54:23.436Z,33.03
2017-11-06T16:56:51.599Z,29.23
2017-11-06T16:59:20.522Z,28.70
2017-11-06T17:01:49.237Z,39.47
2017-11-06T17:04:17.406Z,30.65
2017-11-06T17:06:45.554Z,42.70
2017-11-06T17:09:13.719Z,41.67
2017-11-06T17:11:41.871Z,39.33
2017-11-06T17:14:10.828Z,40.45
2017-11-06T17:16:38.980Z,52.72
2017-11-06T17:19:07.946Z,37.42
2017-11-06T17:21:36.090Z,58.83
2017-11-06T17:24:05.006Z,52.53
2017-11-06T17:26:33.952Z,49.75
2017-11-06T17:29:02.124Z,43.50
2017-11-06T17:31:30.275Z,68.37
2017-11-06T17:33:58.449Z,65.12
2017-11-06T17:36:26.612Z,45.65
2017-11-06T17:38:54.800Z,55.33
2017-11-06T17:41:22.948Z,34.55
2017-11-06T17:43:51.131Z,38.70
2017-11-06T17:46:19.307Z,48.58
2017-11-06T17:48:47.459Z,27.23
2017-11-06T17:51:16.601Z,36.80
2017-11-06T17:53:44.956Z,38.47
2017-11-06T17:56:13.130Z,32.67
2017-11-06T17:58:41.292Z,31.33
2017-11-06T18:01:09.469Z,36.47
2017-11-06T18:03:37.862Z,43.95
2017-11-06T18:06:06.023Z,47.28
2017-11-06T18:08:34.174Z,39.78
2017-11-06T18:11:02.438Z,42.92
2017-11-06T18:13:30.660Z,42.10
2017-11-06T18:15:58.856Z,42.65
2017-11-06T18:18:27.010Z,40.00
2017-11-06T18:20:55.158Z,38.50
2017-11-06T18:23:23.330Z,35.78
2017-11-06T18:25:51.542Z,45.75
2017-11-06T18:28:19.755Z,33.75
2017-11-06T18:30:47.911Z,54.80
2017-11-06T18:33:16.872Z,40.17
2017-11-06T18:35:45.044Z,46.10
2017-11-06T18:38:13.195Z,47.55
2017-11-06T18:40:41.674Z,36.35
2017-11-06T18:43:09.960Z,42.47
2017-11-06T18:45:38.099Z,34.22
2017-11-06T18:48:06.265Z,37.67
2017-11-06T18:50:34.424Z,43.15
2017-11-06T18:53:03.362Z,42.72
2017-11-06T18:55:31.585Z,37.85
2017-11-06T18:58:00.531Z,45.33
2017-11-06T19:00:28.731Z,41.72
2017-11-06T19:02:56.877Z,42.97
2017-11-06T19:05:25.050Z,39.80
2017-11-06T19:07:53.227Z,44.10
2017-11-06T19:10:22.061Z,50.42
2017-11-06T19:12:50.620Z,38.22
2017-11-06T19:15:18.820Z,48.85
2017-11-06T19:17:46.971Z,52.60
2017-11-06T19:20:15.129Z,46.70
2017-11-06T19:22:43.295Z,44.83
2017-11-06T19:25:11.470Z,42.70
2017-11-06T19:27:39.631Z,52.47
2017-11-06T19:30:07.917Z,47.03
2017-11-06T19:32:36.147Z,51.50
2017-11-06T19:35:04.320Z,50.42
2017-11-06T19:37:32.673Z,47.67
2017-11-06T19:40:01.614Z,52.03
2017-11-06T19:42:30.199Z,49.40
2017-11-06T19:44:58.433Z,49.15
2017-11-06T19:47:26.607Z,56.92
2017-11-06T19:49:54.766Z,49.97
2017-11-06T19:52:23.702Z,52.38
2017-11-06T19:54:51.855Z,47.40
2017-11-06T19:57:20.013Z,55.65
2017-11-06T19:59:48.171Z,56.15
2017-11-06T20:02:17.095Z,49.35
2017-11-06T20:04:45.239Z,51.47
2017-11-06T20:07:14.985Z,58.60
2017-11-06T20:09:43.134Z,63.20
2017-11-06T20:12:11.283Z,53.87
2017-11-06T20:14:40.190Z,50.15
2017-11-06T20:17:09.128Z,48.20
2017-11-06T20:19:37.278Z,53.13
2017-11-06T20:22:05.428Z,70.75
2017-11-06T20:24:33.627Z,100.97
2017-11-06T20:27:01.786Z,72.68
2017-11-06T20:29:30.658Z,52.78
2017-11-06T20:31:59.705Z,59.00
2017-11-06T20:34:27.862Z,56.42
2017-11-06T20:36:56.007Z,59.25
2017-11-06T20:39:24.167Z,64.43
2017-11-06T20:41:53.084Z,61.72
2017-11-06T20:44:21.271Z,56.10
2017-11-06T20:46:49.420Z,62.25
2017-11-06T20:49:17.581Z,65.25
2017-11-06T20:51:46.508Z,64.30
2017-11-06T20:54:14.664Z,71.62
2017-11-06T20:56:42.796Z,56.67
2017-11-06T20:59:11.736Z,63.00
2017-11-06T21:01:39.884Z,58.45
2017-11-06T21:04:08.032Z,64.55
2017-11-06T21:06:36.259Z,81.18
2017-11-06T21:09:04.399Z,99.47
2017-11-06T21:11:33.336Z,165.50
2017-11-06T21:14:01.488Z,184.30
2017-11-06T21:16:29.665Z,155.35
2017-11-06T21:18:57.817Z,144.18
2017-11-06T21:21:26.286Z,138.12
2017-11-06T21:23:54.483Z,119.32
2017-11-06T21:26:22.643Z,86.25
2017-11-06T21:28:51.070Z,76.12
2017-11-06T21:31:19.234Z,75.07
2017-11-06T21:33:47.366Z,72.20
2017-11-06T21:36:15.558Z,74.50
2017-11-06T21:38:43.731Z,64.53
2017-11-06T21:41:11.904Z,64.97
2017-11-06T21:43:40.067Z,69.12
2017-11-06T21:46:08.238Z,61.67
2017-11-06T21:48:36.385Z,58.78
2017-11-06T21:51:05.319Z,69.55
2017-11-06T21:53:33.470Z,67.82
2017-11-06T21:56:01.636Z,56.78
2017-11-06T21:58:29.784Z,65.43
2017-11-06T22:00:58.707Z,54.08
2017-11-06T22:03:26.884Z,59.88
2017-11-06T22:05:55.026Z,52.40
2017-11-06T22:08:23.956Z,53.87
2017-11-06T22:10:52.102Z,72.37
2017-11-06T22:13:20.264Z,59.17
2017-11-06T22:15:49.191Z,61.10
2017-11-06T22:18:17.364Z,53.60
2017-11-06T22:20:45.502Z,51.97
2017-11-06T22:23:14.432Z,56.63
2017-11-06T22:25:42.598Z,45.78
2017-11-06T22:28:10.783Z,55.35
2017-11-06T22:30:39.756Z,56.03
2017-11-06T22:33:07.924Z,63.47
2017-11-06T22:35:36.061Z,58.70
2017-11-06T22:38:04.290Z,52.62
2017-11-06T22:40:32.460Z,55.50
2017-11-06T22:43:00.617Z,52.35
2017-11-06T22:45:28.774Z,54.00
2017-11-06T22:47:56.931Z,54.28
2017-11-06T22:50:25.854Z,50.40
2017-11-06T22:52:54.035Z,52.67
2017-11-06T22:55:22.918Z,52.83
2017-11-06T22:57:51.073Z,78.75
2017-11-06T23:00:19.234Z,73.57
2017-11-06T23:02:49.097Z,63.75
2017-11-06T23:05:17.257Z,62.62
2017-11-06T23:07:45.412Z,64.65
2017-11-06T23:10:13.643Z,56.70
2017-11-06T23:12:41.810Z,57.28
2017-11-06T23:15:09.958Z,62.35
2017-11-06T23:17:38.111Z,55.45
2017-11-06T23:20:06.312Z,53.33
2017-11-06T23:22:34.481Z,57.55
2017-11-06T23:25:02.634Z,51.17
2017-11-06T23:27:30.809Z,47.72
2017-11-06T23:29:58.966Z,54.13
2017-11-06T23:32:27.128Z,48.80
2017-11-06T23:34:56.047Z,54.75
2017-11-06T23:37:24.209Z,67.53
2017-11-06T23:39:52.351Z,61.30
2017-11-06T23:42:21.271Z,62.40
2017-11-06T23:44:50.309Z,57.97
2017-11-06T23:47:18.480Z,55.72
2017-11-06T23:49:46.636Z,56.05
2017-11-06T23:52:14.824Z,226.10
2017-11-06T23:54:42.971Z,281.77
2017-11-06T23:57:11.124Z,393.40
2017-11-06T23:59:39.331Z,371.90
